sensor_id;sensor_type;location;lat;lon;timestamp;temperature;humidity
5786;DHT22;2919;48.630;9.000;2023-04-19T00:00:06;8.90;99.90
5786;DHT22;2919;48.630;9.000;2023-04-19T00:02:34;8.90;99.90
5786;DHT22;2919;48.630;9.000;2023-04-19T00:05:00;8.90;99.90
5786;DHT22;2919;48.630;9.000;2023-04-19T00:07:27;8.80;99.90
5786;DHT22;2919;48.630;9.000;2023-04-19T00:09:52;8.90;99.90
5786;DHT22;2919;48.630;9.000;2023-04-19T00:12:18;8.90;99.90
5786;DHT22;2919;48.630;9.000;2023-04-19T00:14:43;8.90;99.90
5786;DHT22;2919;48.630;9.000;2023-04-19T00:17:10;8.90;99.90
5786;DHT22;2919;48.630;9.000;2023-04-19T00:19:36;8.90;99.90
5786;DHT22;2919;48.630;9.000;2023-04-19T00:22:02;8.90;99.90
5786;DHT22;2919;48.630;9.000;2023-04-19T00:24:28;8.90;99.90
5786;DHT22;2919;48.630;9.000;2023-04-19T00:26:53;8.80;99.90
5786;DHT22;2919;48.630;9.000;2023-04-19T00:29:19;8.90;99.90
5786;DHT22;2919;48.630;9.000;2023-04-19T00:31:45;8.90;99.90
5786;DHT22;2919;48.630;9.000;2023-04-19T00:34:10;8.90;99.90
5786;DHT22;2919;48.630;9.000;2023-04-19T00:36:36;8.80;99.90
5786;DHT22;2919;48.630;9.000;2023-04-19T00:39:02;8.80;99.90
5786;DHT22;2919;48.630;9.000;2023-04-19T00:41:28;8.80;99.90
5786;DHT22;2919;48.630;9.000;2023-04-19T00:43:53;8.70;99.90
5786;DHT22;2919;48.630;9.000;2023-04-19T00:46:19;8.80;99.90
5786;DHT22;2919;48.630;9.000;2023-04-19T00:48:46;8.70;99.90
5786;DHT22;2919;48.630;9.000;2023-04-19T00:51:12;8.80;99.90
5786;DHT22;2919;48.630;9.000;2023-04-19T00:53:37;8.70;99.90
5786;DHT22;2919;48.630;9.000;2023-04-19T00:56:05;8.70;99.90
5786;DHT22;2919;48.630;9.000;2023-04-19T00:58:31;8.70;99.90
5786;DHT22;2919;48.630;9.000;2023-04-19T01:00:56;8.70;99.90
5786;DHT22;2919;48.630;9.000;2023-04-19T01:03:22;8.70;99.90
5786;DHT22;2919;48.630;9.000;2023-04-19T01:05:48;8.70;99.90
5786;DHT22;2919;48.630;9.000;2023-04-19T01:08:13;8.70;99.90
5786;DHT22;2919;48.630;9.000;2023-04-19T01:10:39;8.60;99.90
5786;DHT22;2919;48.630;9.000;2023-04-19T01:13:05;8.70;99.90
5786;DHT22;2919;48.630;9.000;2023-04-19T01:15:30;8.70;99.90
5786;DHT22;2919;48.630;9.000;2023-04-19T01:17:56;8.70;99.90
5786;DHT22;2919;48.630;9.000;2023-04-19T01:20:22;8.70;99.90
5786;DHT22;2919;48.630;9.000;2023-04-19T01:22:48;8.60;99.90
5786;DHT22;2919;48.630;9.000;2023-04-19T01:25:13;8.60;99.90
5786;DHT22;2919;48.630;9.000;2023-04-19T01:27:39;8.60;99.90
5786;DHT22;2919;48.630;9.000;2023-04-19T01:30:05;8.60;99.90
5786;DHT22;2919;48.630;9.000;2023-04-19T01:32:31;8.60;99.90
5786;DHT22;2919;48.630;9.000;2023-04-19T01:34:57;8.60;99.90
5786;DHT22;2919;48.630;9.000;2023-04-19T01:37:22;8.60;99.90
5786;DHT22;2919;48.630;9.000;2023-04-19T01:39:48;8.60;99.90
5786;DHT22;2919;48.630;9.000;2023-04-19T01:42:14;8.60;99.90
5786;DHT22;2919;48.630;9.000;2023-04-19T01:44:39;8.60;99.90
5786;DHT22;2919;48.630;9.000;2023-04-19T01:47:05;8.60;99.90
5786;DHT22;2919;48.630;9.000;2023-04-19T01:49:31;8.50;99.90
5786;DHT22;2919;48.630;9.000;2023-04-19T01:51:56;8.50;99.90
5786;DHT22;2919;48.630;9.000;2023-04-19T01:54:22;8.50;99.90
5786;DHT22;2919;48.630;9.000;2023-04-19T01:56:47;8.40;99.90
5786;DHT22;2919;48.630;9.000;2023-04-19T01:59:13;8.50;99.90
5786;DHT22;2919;48.630;9.000;2023-04-19T02:01:39;8.50;99.90
5786;DHT22;2919;48.630;9.000;2023-04-19T02:04:05;8.50;99.90
5786;DHT22;2919;48.630;9.000;2023-04-19T02:06:32;8.40;99.90
5786;DHT22;2919;48.630;9.000;2023-04-19T02:08:57;8.50;99.90
5786;DHT22;2919;48.630;9.000;2023-04-19T02:11:23;8.50;99.90
5786;DHT22;2919;48.630;9.000;2023-04-19T02:13:49;8.40;99.90
5786;DHT22;2919;48.630;9.000;2023-04-19T02:16:14;8.40;99.90
5786;DHT22;2919;48.630;9.000;2023-04-19T02:18:40;8.40;99.90
5786;DHT22;2919;48.630;9.000;2023-04-19T02:21:07;8.40;99.90
5786;DHT22;2919;48.630;9.000;2023-04-19T02:23:33;8.40;99.90
5786;DHT22;2919;48.630;9.000;2023-04-19T02:26:00;8.40;99.90
5786;DHT22;2919;48.630;9.000;2023-04-19T02:28:28;8.40;99.90
5786;DHT22;2919;48.630;9.000;2023-04-19T02:30:54;8.40;99.90
5786;DHT22;2919;48.630;9.000;2023-04-19T02:33:21;8.40;99.90
5786;DHT22;2919;48.630;9.000;2023-04-19T02:35:47;8.20;99.90
5786;DHT22;2919;48.630;9.000;2023-04-19T02:38:13;8.40;99.90
5786;DHT22;2919;48.630;9.000;2023-04-19T02:40:38;8.20;99.90
5786;DHT22;2919;48.630;9.000;2023-04-19T02:43:04;8.30;99.90
5786;DHT22;2919;48.630;9.000;2023-04-19T02:45:30;8.30;99.90
5786;DHT22;2919;48.630;9.000;2023-04-19T02:47:55;8.30;99.90
5786;DHT22;2919;48.630;9.000;2023-04-19T02:50:21;8.30;99.90
5786;DHT22;2919;48.630;9.000;2023-04-19T02:52:47;8.20;99.90
5786;DHT22;2919;48.630;9.000;2023-04-19T02:55:12;8.30;99.90
5786;DHT22;2919;48.630;9.000;2023-04-19T02:57:38;8.30;99.90
5786;DHT22;2919;48.630;9.000;2023-04-19T03:00:04;8.30;99.90
5786;DHT22;2919;48.630;9.000;2023-04-19T03:02:30;8.30;99.90
5786;DHT22;2919;48.630;9.000;2023-04-19T03:04:56;8.30;99.90
5786;DHT22;2919;48.630;9.000;2023-04-19T03:07:22;8.30;99.90
5786;DHT22;2919;48.630;9.000;2023-04-19T03:09:48;8.40;99.90
5786;DHT22;2919;48.630;9.000;2023-04-19T03:12:13;8.30;99.90
5786;DHT22;2919;48.630;9.000;2023-04-19T03:14:39;8.30;99.90
5786;DHT22;2919;48.630;9.000;2023-04-19T03:17:04;8.20;99.90
5786;DHT22;2919;48.630;9.000;2023-04-19T03:19:30;8.20;99.90
5786;DHT22;2919;48.630;9.000;2023-04-19T03:21:56;8.20;99.90
5786;DHT22;2919;48.630;9.000;2023-04-19T03:24:29;8.20;99.90
5786;DHT22;2919;48.630;9.000;2023-04-19T03:26:55;8.20;99.90
5786;DHT22;2919;48.630;9.000;2023-04-19T03:29:21;8.20;99.90
5786;DHT22;2919;48.630;9.000;2023-04-19T03:31:46;8.20;99.90
5786;DHT22;2919;48.630;9.000;2023-04-19T03:34:12;8.20;99.90
5786;DHT22;2919;48.630;9.000;2023-04-19T03:36:38;8.20;99.90
5786;DHT22;2919;48.630;9.000;2023-04-19T03:39:05;8.10;99.90
5786;DHT22;2919;48.630;9.000;2023-04-19T03:41:30;8.10;99.90
5786;DHT22;2919;48.630;9.000;2023-04-19T03:43:56;8.10;99.90
5786;DHT22;2919;48.630;9.000;2023-04-19T03:46:23;8.10;99.90
5786;DHT22;2919;48.630;9.000;2023-04-19T03:48:48;8.10;99.90
5786;DHT22;2919;48.630;9.000;2023-04-19T03:51:14;8.10;99.90
5786;DHT22;2919;48.630;9.000;2023-04-19T03:53:40;8.10;99.90
5786;DHT22;2919;48.630;9.000;2023-04-19T03:56:06;8.20;99.90
5786;DHT22;2919;48.630;9.000;2023-04-19T03:58:32;8.00;99.90
5786;DHT22;2919;48.630;9.000;2023-04-19T04:00:58;8.00;99.90
5786;DHT22;2919;48.630;9.000;2023-04-19T04:03:24;8.00;99.90
5786;DHT22;2919;48.630;9.000;2023-04-19T04:05:50;8.00;99.90
5786;DHT22;2919;48.630;9.000;2023-04-19T04:08:15;8.00;99.90
5786;DHT22;2919;48.630;9.000;2023-04-19T04:10:41;8.00;99.90
5786;DHT22;2919;48.630;9.000;2023-04-19T04:13:07;8.00;99.90
5786;DHT22;2919;48.630;9.000;2023-04-19T04:15:32;8.00;99.90
5786;DHT22;2919;48.630;9.000;2023-04-19T04:17:58;8.00;99.90
5786;DHT22;2919;48.630;9.000;2023-04-19T04:20:23;8.00;99.90
5786;DHT22;2919;48.630;9.000;2023-04-19T04:22:49;8.00;99.90
5786;DHT22;2919;48.630;9.000;2023-04-19T04:25:15;8.00;99.90
5786;DHT22;2919;48.630;9.000;2023-04-19T04:27:43;8.00;99.90
5786;DHT22;2919;48.630;9.000;2023-04-19T04:30:10;8.00;99.90
5786;DHT22;2919;48.630;9.000;2023-04-19T04:32:36;8.00;99.90
5786;DHT22;2919;48.630;9.000;2023-04-19T04:35:05;8.00;99.90
5786;DHT22;2919;48.630;9.000;2023-04-19T04:37:32;8.00;99.90
5786;DHT22;2919;48.630;9.000;2023-04-19T04:39:59;8.00;99.90
5786;DHT22;2919;48.630;9.000;2023-04-19T04:42:25;8.00;99.90
5786;DHT22;2919;48.630;9.000;2023-04-19T04:44:50;8.00;99.90
5786;DHT22;2919;48.630;9.000;2023-04-19T04:47:16;8.00;99.90
5786;DHT22;2919;48.630;9.000;2023-04-19T04:49:42;8.00;99.90
5786;DHT22;2919;48.630;9.000;2023-04-19T04:52:08;8.00;99.90
5786;DHT22;2919;48.630;9.000;2023-04-19T04:54:33;8.00;99.90
5786;DHT22;2919;48.630;9.000;2023-04-19T04:56:59;8.00;99.90
5786;DHT22;2919;48.630;9.000;2023-04-19T04:59:26;8.00;99.90
5786;DHT22;2919;48.630;9.000;2023-04-19T05:01:51;8.00;99.90
5786;DHT22;2919;48.630;9.000;2023-04-19T05:04:18;8.00;99.90
5786;DHT22;2919;48.630;9.000;2023-04-19T05:06:43;8.10;99.90
5786;DHT22;2919;48.630;9.000;2023-04-19T05:09:09;8.10;99.90
5786;DHT22;2919;48.630;9.000;2023-04-19T05:11:35;8.10;99.90
5786;DHT22;2919;48.630;9.000;2023-04-19T05:14:01;8.10;99.90
5786;DHT22;2919;48.630;9.000;2023-04-19T05:16:27;8.10;99.90
5786;DHT22;2919;48.630;9.000;2023-04-19T05:18:53;8.10;99.90
5786;DHT22;2919;48.630;9.000;2023-04-19T05:21:18;8.10;99.90
5786;DHT22;2919;48.630;9.000;2023-04-19T05:23:44;8.20;99.90
5786;DHT22;2919;48.630;9.000;2023-04-19T05:26:10;8.10;99.90
5786;DHT22;2919;48.630;9.000;2023-04-19T05:28:37;8.30;99.90
5786;DHT22;2919;48.630;9.000;2023-04-19T05:31:03;8.30;99.90
5786;DHT22;2919;48.630;9.000;2023-04-19T05:33:29;8.40;99.90
5786;DHT22;2919;48.630;9.000;2023-04-19T05:35:54;8.40;99.90
5786;DHT22;2919;48.630;9.000;2023-04-19T05:38:20;8.40;99.90
5786;DHT22;2919;48.630;9.000;2023-04-19T05:40:46;8.40;99.90
5786;DHT22;2919;48.630;9.000;2023-04-19T05:43:11;8.60;99.90
5786;DHT22;2919;48.630;9.000;2023-04-19T05:45:37;8.60;99.90
5786;DHT22;2919;48.630;9.000;2023-04-19T05:48:03;8.60;99.90
5786;DHT22;2919;48.630;9.000;2023-04-19T05:50:28;8.60;99.90
5786;DHT22;2919;48.630;9.000;2023-04-19T05:52:54;8.60;99.90
5786;DHT22;2919;48.630;9.000;2023-04-19T05:55:20;8.60;99.90
5786;DHT22;2919;48.630;9.000;2023-04-19T05:57:45;8.60;99.90
5786;DHT22;2919;48.630;9.000;2023-04-19T06:00:11;8.60;99.90
5786;DHT22;2919;48.630;9.000;2023-04-19T06:02:37;8.50;99.90
5786;DHT22;2919;48.630;9.000;2023-04-19T06:05:03;8.40;99.90
5786;DHT22;2919;48.630;9.000;2023-04-19T06:07:29;8.40;99.90
5786;DHT22;2919;48.630;9.000;2023-04-19T06:09:55;8.30;99.90
5786;DHT22;2919;48.630;9.000;2023-04-19T06:12:21;8.30;99.90
5786;DHT22;2919;48.630;9.000;2023-04-19T06:14:47;8.30;99.90
5786;DHT22;2919;48.630;9.000;2023-04-19T06:17:12;8.30;99.90
5786;DHT22;2919;48.630;9.000;2023-04-19T06:19:38;8.40;99.90
5786;DHT22;2919;48.630;9.000;2023-04-19T06:22:04;8.40;99.90
5786;DHT22;2919;48.630;9.000;2023-04-19T06:24:30;8.40;99.90
5786;DHT22;2919;48.630;9.000;2023-04-19T06:26:56;8.40;99.90
5786;DHT22;2919;48.630;9.000;2023-04-19T06:29:22;8.40;99.90
5786;DHT22;2919;48.630;9.000;2023-04-19T06:31:48;8.40;99.90
5786;DHT22;2919;48.630;9.000;2023-04-19T06:34:14;8.50;99.90
5786;DHT22;2919;48.630;9.000;2023-04-19T06:36:40;8.40;99.90
5786;DHT22;2919;48.630;9.000;2023-04-19T06:39:06;8.40;99.90
5786;DHT22;2919;48.630;9.000;2023-04-19T06:41:32;8.40;99.90
5786;DHT22;2919;48.630;9.000;2023-04-19T06:43:57;8.50;99.90
5786;DHT22;2919;48.630;9.000;2023-04-19T06:46:23;8.50;99.90
5786;DHT22;2919;48.630;9.000;2023-04-19T06:48:49;8.50;99.90
5786;DHT22;2919;48.630;9.000;2023-04-19T06:51:15;8.60;99.90
5786;DHT22;2919;48.630;9.000;2023-04-19T06:53:40;8.60;99.90
5786;DHT22;2919;48.630;9.000;2023-04-19T06:56:06;8.70;99.90
5786;DHT22;2919;48.630;9.000;2023-04-19T06:58:32;8.70;99.90
5786;DHT22;2919;48.630;9.000;2023-04-19T07:00:58;8.70;99.90
5786;DHT22;2919;48.630;9.000;2023-04-19T07:03:25;8.70;99.90
5786;DHT22;2919;48.630;9.000;2023-04-19T07:05:51;8.90;99.90
5786;DHT22;2919;48.630;9.000;2023-04-19T07:08:17;8.90;99.90
5786;DHT22;2919;48.630;9.000;2023-04-19T07:10:43;8.80;99.90
5786;DHT22;2919;48.630;9.000;2023-04-19T07:13:11;8.90;99.90
5786;DHT22;2919;48.630;9.000;2023-04-19T07:15:37;9.00;99.90
5786;DHT22;2919;48.630;9.000;2023-04-19T07:18:02;9.10;99.90
5786;DHT22;2919;48.630;9.000;2023-04-19T07:20:28;9.10;99.90
5786;DHT22;2919;48.630;9.000;2023-04-19T07:22:58;9.10;99.90
5786;DHT22;2919;48.630;9.000;2023-04-19T07:25:24;9.00;99.90
5786;DHT22;2919;48.630;9.000;2023-04-19T07:27:54;9.10;99.90
5786;DHT22;2919;48.630;9.000;2023-04-19T07:30:21;9.10;99.90
5786;DHT22;2919;48.630;9.000;2023-04-19T07:32:47;9.20;99.90
5786;DHT22;2919;48.630;9.000;2023-04-19T07:35:12;9.20;99.90
5786;DHT22;2919;48.630;9.000;2023-04-19T07:37:38;9.20;99.90
5786;DHT22;2919;48.630;9.000;2023-04-19T07:40:04;9.30;99.90
5786;DHT22;2919;48.630;9.000;2023-04-19T07:42:30;9.40;99.90
5786;DHT22;2919;48.630;9.000;2023-04-19T07:44:56;9.40;99.90
5786;DHT22;2919;48.630;9.000;2023-04-19T07:47:21;9.50;99.90
5786;DHT22;2919;48.630;9.000;2023-04-19T07:49:51;9.60;99.90
5786;DHT22;2919;48.630;9.000;2023-04-19T07:52:16;9.50;99.90
5786;DHT22;2919;48.630;9.000;2023-04-19T07:54:42;9.60;99.90
5786;DHT22;2919;48.630;9.000;2023-04-19T07:57:08;9.70;99.90
5786;DHT22;2919;48.630;9.000;2023-04-19T07:59:34;9.70;99.90
5786;DHT22;2919;48.630;9.000;2023-04-19T08:01:59;9.70;99.90
5786;DHT22;2919;48.630;9.000;2023-04-19T08:04:25;9.70;99.90
5786;DHT22;2919;48.630;9.000;2023-04-19T08:06:51;9.80;99.90
5786;DHT22;2919;48.630;9.000;2023-04-19T08:09:17;9.90;99.90
5786;DHT22;2919;48.630;9.000;2023-04-19T08:11:43;10.10;99.90
5786;DHT22;2919;48.630;9.000;2023-04-19T08:14:09;10.30;99.90
5786;DHT22;2919;48.630;9.000;2023-04-19T08:16:34;10.40;99.90
5786;DHT22;2919;48.630;9.000;2023-04-19T08:19:00;10.50;99.90
5786;DHT22;2919;48.630;9.000;2023-04-19T08:21:26;10.50;99.90
5786;DHT22;2919;48.630;9.000;2023-04-19T08:23:51;10.60;99.90
5786;DHT22;2919;48.630;9.000;2023-04-19T08:26:17;10.50;99.90
5786;DHT22;2919;48.630;9.000;2023-04-19T08:28:43;10.60;99.90
5786;DHT22;2919;48.630;9.000;2023-04-19T08:31:09;10.80;99.90
5786;DHT22;2919;48.630;9.000;2023-04-19T08:33:34;11.00;99.90
5786;DHT22;2919;48.630;9.000;2023-04-19T08:36:00;11.20;99.90
5786;DHT22;2919;48.630;9.000;2023-04-19T08:38:26;11.60;99.90
5786;DHT22;2919;48.630;9.000;2023-04-19T08:40:53;11.60;99.90
5786;DHT22;2919;48.630;9.000;2023-04-19T08:43:20;12.30;99.90
5786;DHT22;2919;48.630;9.000;2023-04-19T08:45:47;12.60;99.90
5786;DHT22;2919;48.630;9.000;2023-04-19T08:48:15;12.60;99.90
5786;DHT22;2919;48.630;9.000;2023-04-19T08:50:41;12.40;99.90
5786;DHT22;2919;48.630;9.000;2023-04-19T08:53:08;12.40;99.90
5786;DHT22;2919;48.630;9.000;2023-04-19T08:55:37;12.60;99.90
5786;DHT22;2919;48.630;9.000;2023-04-19T08:58:03;12.80;99.90
5786;DHT22;2919;48.630;9.000;2023-04-19T09:00:31;12.60;99.90
5786;DHT22;2919;48.630;9.000;2023-04-19T09:02:57;12.70;99.90
5786;DHT22;2919;48.630;9.000;2023-04-19T09:05:23;12.80;99.90
5786;DHT22;2919;48.630;9.000;2023-04-19T09:07:49;13.00;99.90
5786;DHT22;2919;48.630;9.000;2023-04-19T09:10:17;12.80;99.90
5786;DHT22;2919;48.630;9.000;2023-04-19T09:13:02;12.10;99.90
5786;DHT22;2919;48.630;9.000;2023-04-19T09:15:39;11.90;99.90
5786;DHT22;2919;48.630;9.000;2023-04-19T09:18:09;11.70;99.90
5786;DHT22;2919;48.630;9.000;2023-04-19T09:20:40;11.70;99.90
5786;DHT22;2919;48.630;9.000;2023-04-19T09:23:08;11.60;99.90
5786;DHT22;2919;48.630;9.000;2023-04-19T09:25:34;12.00;99.90
5786;DHT22;2919;48.630;9.000;2023-04-19T09:28:13;12.20;99.90
5786;DHT22;2919;48.630;9.000;2023-04-19T09:30:40;12.30;99.90
5786;DHT22;2919;48.630;9.000;2023-04-19T09:33:06;12.20;99.90
5786;DHT22;2919;48.630;9.000;2023-04-19T09:35:39;12.10;99.90
5786;DHT22;2919;48.630;9.000;2023-04-19T09:38:06;12.20;99.90
5786;DHT22;2919;48.630;9.000;2023-04-19T09:40:31;12.00;99.90
5786;DHT22;2919;48.630;9.000;2023-04-19T09:42:57;12.20;99.90
5786;DHT22;2919;48.630;9.000;2023-04-19T09:45:23;12.30;99.90
5786;DHT22;2919;48.630;9.000;2023-04-19T09:48:07;12.60;99.90
5786;DHT22;2919;48.630;9.000;2023-04-19T09:50:33;13.10;99.90
5786;DHT22;2919;48.630;9.000;2023-04-19T09:52:59;13.20;99.70
5786;DHT22;2919;48.630;9.000;2023-04-19T09:55:25;13.50;98.70
5786;DHT22;2919;48.630;9.000;2023-04-19T09:57:52;13.40;98.80
5786;DHT22;2919;48.630;9.000;2023-04-19T10:00:18;13.60;98.80
5786;DHT22;2919;48.630;9.000;2023-04-19T10:02:46;13.40;98.40
5786;DHT22;2919;48.630;9.000;2023-04-19T10:05:19;13.60;98.70
5786;DHT22;2919;48.630;9.000;2023-04-19T10:07:46;13.60;98.70
5786;DHT22;2919;48.630;9.000;2023-04-19T10:10:14;13.70;99.70
5786;DHT22;2919;48.630;9.000;2023-04-19T10:12:41;14.00;98.30
5786;DHT22;2919;48.630;9.000;2023-04-19T10:15:10;14.00;96.10
5786;DHT22;2919;48.630;9.000;2023-04-19T10:17:37;13.90;97.00
5786;DHT22;2919;48.630;9.000;2023-04-19T10:20:08;13.90;98.00
5786;DHT22;2919;48.630;9.000;2023-04-19T10:22:35;14.10;96.80
5786;DHT22;2919;48.630;9.000;2023-04-19T10:25:11;14.20;97.30
5786;DHT22;2919;48.630;9.000;2023-04-19T10:27:41;14.30;96.30
5786;DHT22;2919;48.630;9.000;2023-04-19T10:30:24;14.40;96.70
5786;DHT22;2919;48.630;9.000;2023-04-19T10:32:58;14.50;95.70
5786;DHT22;2919;48.630;9.000;2023-04-19T10:35:32;14.20;95.80
5786;DHT22;2919;48.630;9.000;2023-04-19T10:43:15;14.60;95.40
5786;DHT22;2919;48.630;9.000;2023-04-19T10:45:42;14.50;94.60
5786;DHT22;2919;48.630;9.000;2023-04-19T10:53:57;14.10;94.60
5786;DHT22;2919;48.630;9.000;2023-04-19T11:04:11;12.60;98.60
5786;DHT22;2919;48.630;9.000;2023-04-19T11:07:04;12.20;99.20
5786;DHT22;2919;48.630;9.000;2023-04-19T11:14:44;11.90;99.90
5786;DHT22;2919;48.630;9.000;2023-04-19T11:17:25;12.00;99.90
5786;DHT22;2919;48.630;9.000;2023-04-19T11:22:46;12.20;99.00
5786;DHT22;2919;48.630;9.000;2023-04-19T11:27:39;12.30;98.30
5786;DHT22;2919;48.630;9.000;2023-04-19T11:30:08;12.30;98.20
5786;DHT22;2919;48.630;9.000;2023-04-19T11:32:34;12.50;98.30
5786;DHT22;2919;48.630;9.000;2023-04-19T11:35:07;12.60;97.80
5786;DHT22;2919;48.630;9.000;2023-04-19T11:37:37;12.60;98.00
5786;DHT22;2919;48.630;9.000;2023-04-19T11:40:04;12.80;97.30
5786;DHT22;2919;48.630;9.000;2023-04-19T11:42:30;12.60;97.90
5786;DHT22;2919;48.630;9.000;2023-04-19T11:44:56;12.50;98.50
5786;DHT22;2919;48.630;9.000;2023-04-19T11:47:27;12.40;98.20
5786;DHT22;2919;48.630;9.000;2023-04-19T11:49:54;12.20;99.10
5786;DHT22;2919;48.630;9.000;2023-04-19T11:52:23;12.00;99.10
5786;DHT22;2919;48.630;9.000;2023-04-19T11:54:53;11.70;99.50
5786;DHT22;2919;48.630;9.000;2023-04-19T11:57:28;11.60;99.80
5786;DHT22;2919;48.630;9.000;2023-04-19T12:00:06;11.50;99.90
5786;DHT22;2919;48.630;9.000;2023-04-19T12:02:36;11.50;99.80
5786;DHT22;2919;48.630;9.000;2023-04-19T12:05:10;11.40;99.90
5786;DHT22;2919;48.630;9.000;2023-04-19T12:07:36;11.40;99.90
5786;DHT22;2919;48.630;9.000;2023-04-19T12:10:12;11.40;99.90
5786;DHT22;2919;48.630;9.000;2023-04-19T12:12:38;11.40;99.90
5786;DHT22;2919;48.630;9.000;2023-04-19T12:15:05;11.40;99.90
5786;DHT22;2919;48.630;9.000;2023-04-19T12:17:30;11.50;99.90
5786;DHT22;2919;48.630;9.000;2023-04-19T12:19:56;11.50;99.90
5786;DHT22;2919;48.630;9.000;2023-04-19T12:22:22;11.40;99.90
5786;DHT22;2919;48.630;9.000;2023-04-19T12:24:51;11.40;99.90
5786;DHT22;2919;48.630;9.000;2023-04-19T12:27:18;11.20;99.90
5786;DHT22;2919;48.630;9.000;2023-04-19T12:29:43;11.10;99.90
5786;DHT22;2919;48.630;9.000;2023-04-19T12:32:10;11.00;99.90
5786;DHT22;2919;48.630;9.000;2023-04-19T12:34:36;10.80;99.90
5786;DHT22;2919;48.630;9.000;2023-04-19T12:37:01;10.80;99.90
5786;DHT22;2919;48.630;9.000;2023-04-19T12:39:29;10.70;99.90
5786;DHT22;2919;48.630;9.000;2023-04-19T12:41:55;10.60;99.90
5786;DHT22;2919;48.630;9.000;2023-04-19T12:44:21;10.60;99.90
5786;DHT22;2919;48.630;9.000;2023-04-19T12:46:46;10.60;99.90
5786;DHT22;2919;48.630;9.000;2023-04-19T12:49:12;10.50;99.90
5786;DHT22;2919;48.630;9.000;2023-04-19T12:51:38;10.40;99.90
5786;DHT22;2919;48.630;9.000;2023-04-19T12:54:03;10.40;99.90
5786;DHT22;2919;48.630;9.000;2023-04-19T12:56:31;10.30;99.90
5786;DHT22;2919;48.630;9.000;2023-04-19T12:58:57;10.30;99.90
5786;DHT22;2919;48.630;9.000;2023-04-19T13:01:23;10.20;99.90
5786;DHT22;2919;48.630;9.000;2023-04-19T13:03:48;10.20;99.90
5786;DHT22;2919;48.630;9.000;2023-04-19T13:06:14;10.20;99.90
5786;DHT22;2919;48.630;9.000;2023-04-19T13:08:41;10.20;99.90
5786;DHT22;2919;48.630;9.000;2023-04-19T13:11:06;10.20;99.90
5786;DHT22;2919;48.630;9.000;2023-04-19T13:13:33;10.20;99.90
5786;DHT22;2919;48.630;9.000;2023-04-19T13:15:59;10.10;99.90
5786;DHT22;2919;48.630;9.000;2023-04-19T13:18:25;10.00;99.90
5786;DHT22;2919;48.630;9.000;2023-04-19T13:20:51;10.00;99.90
5786;DHT22;2919;48.630;9.000;2023-04-19T13:23:18;10.00;99.90
5786;DHT22;2919;48.630;9.000;2023-04-19T13:25:43;9.90;99.90
5786;DHT22;2919;48.630;9.000;2023-04-19T13:28:09;9.90;99.90
5786;DHT22;2919;48.630;9.000;2023-04-19T13:30:35;9.90;99.90
5786;DHT22;2919;48.630;9.000;2023-04-19T13:33:00;9.70;99.90
5786;DHT22;2919;48.630;9.000;2023-04-19T13:35:26;9.50;99.90
5786;DHT22;2919;48.630;9.000;2023-04-19T13:37:51;9.20;99.90
5786;DHT22;2919;48.630;9.000;2023-04-19T13:40:17;9.10;99.90
5786;DHT22;2919;48.630;9.000;2023-04-19T13:42:43;9.00;99.90
5786;DHT22;2919;48.630;9.000;2023-04-19T13:45:09;9.00;99.90
5786;DHT22;2919;48.630;9.000;2023-04-19T13:47:34;8.90;99.90
5786;DHT22;2919;48.630;9.000;2023-04-19T13:50:00;8.80;99.90
5786;DHT22;2919;48.630;9.000;2023-04-19T13:52:26;8.80;99.90
5786;DHT22;2919;48.630;9.000;2023-04-19T13:54:51;8.70;99.90
5786;DHT22;2919;48.630;9.000;2023-04-19T13:57:17;8.70;99.90
5786;DHT22;2919;48.630;9.000;2023-04-19T13:59:43;8.70;99.90
5786;DHT22;2919;48.630;9.000;2023-04-19T14:02:08;8.60;99.90
5786;DHT22;2919;48.630;9.000;2023-04-19T14:04:34;8.70;99.90
5786;DHT22;2919;48.630;9.000;2023-04-19T14:07:00;8.60;99.90
5786;DHT22;2919;48.630;9.000;2023-04-19T14:09:25;8.60;99.90
5786;DHT22;2919;48.630;9.000;2023-04-19T14:11:51;8.60;99.90
5786;DHT22;2919;48.630;9.000;2023-04-19T14:14:17;8.60;99.90
5786;DHT22;2919;48.630;9.000;2023-04-19T14:16:42;8.60;99.90
5786;DHT22;2919;48.630;9.000;2023-04-19T14:19:09;8.60;99.90
5786;DHT22;2919;48.630;9.000;2023-04-19T14:21:35;8.50;99.90
5786;DHT22;2919;48.630;9.000;2023-04-19T14:24:00;8.50;99.90
5786;DHT22;2919;48.630;9.000;2023-04-19T14:26:26;8.40;99.90
5786;DHT22;2919;48.630;9.000;2023-04-19T14:28:52;8.40;99.90
5786;DHT22;2919;48.630;9.000;2023-04-19T14:31:17;8.40;99.90
5786;DHT22;2919;48.630;9.000;2023-04-19T14:33:43;8.40;99.90
5786;DHT22;2919;48.630;9.000;2023-04-19T14:36:09;8.30;99.90
5786;DHT22;2919;48.630;9.000;2023-04-19T14:38:34;8.30;99.90
5786;DHT22;2919;48.630;9.000;2023-04-19T14:41:00;8.30;99.90
5786;DHT22;2919;48.630;9.000;2023-04-19T14:43:28;8.40;99.90
5786;DHT22;2919;48.630;9.000;2023-04-19T14:45:53;8.40;99.90
5786;DHT22;2919;48.630;9.000;2023-04-19T14:48:19;8.30;99.90
5786;DHT22;2919;48.630;9.000;2023-04-19T14:50:45;8.30;99.90
5786;DHT22;2919;48.630;9.000;2023-04-19T14:53:11;8.40;99.90
5786;DHT22;2919;48.630;9.000;2023-04-19T14:55:37;8.40;99.90
5786;DHT22;2919;48.630;9.000;2023-04-19T14:58:03;8.30;99.90
5786;DHT22;2919;48.630;9.000;2023-04-19T15:00:29;8.30;99.90
5786;DHT22;2919;48.630;9.000;2023-04-19T15:02:55;8.30;99.90
5786;DHT22;2919;48.630;9.000;2023-04-19T15:05:25;8.40;99.90
5786;DHT22;2919;48.630;9.000;2023-04-19T15:07:51;8.30;99.90
5786;DHT22;2919;48.630;9.000;2023-04-19T15:10:17;8.40;99.90
5786;DHT22;2919;48.630;9.000;2023-04-19T15:12:43;8.50;99.90
5786;DHT22;2919;48.630;9.000;2023-04-19T15:15:09;8.60;99.90
5786;DHT22;2919;48.630;9.000;2023-04-19T15:17:34;8.60;99.90
5786;DHT22;2919;48.630;9.000;2023-04-19T15:20:00;8.60;99.90
5786;DHT22;2919;48.630;9.000;2023-04-19T15:22:26;8.70;99.90
5786;DHT22;2919;48.630;9.000;2023-04-19T15:24:52;8.70;99.90
5786;DHT22;2919;48.630;9.000;2023-04-19T15:27:17;8.70;99.90
5786;DHT22;2919;48.630;9.000;2023-04-19T15:29:45;8.60;99.90
5786;DHT22;2919;48.630;9.000;2023-04-19T15:32:11;8.70;99.90
5786;DHT22;2919;48.630;9.000;2023-04-19T15:34:37;8.60;99.90
5786;DHT22;2919;48.630;9.000;2023-04-19T15:37:02;8.60;99.90
5786;DHT22;2919;48.630;9.000;2023-04-19T15:39:30;8.60;99.90
5786;DHT22;2919;48.630;9.000;2023-04-19T15:41:56;8.50;99.90
5786;DHT22;2919;48.630;9.000;2023-04-19T15:44:22;8.50;99.90
5786;DHT22;2919;48.630;9.000;2023-04-19T15:46:48;8.60;99.90
5786;DHT22;2919;48.630;9.000;2023-04-19T15:49:14;8.50;99.90
5786;DHT22;2919;48.630;9.000;2023-04-19T15:51:40;8.50;99.90
5786;DHT22;2919;48.630;9.000;2023-04-19T15:54:06;8.50;99.90
5786;DHT22;2919;48.630;9.000;2023-04-19T15:56:32;8.50;99.90
5786;DHT22;2919;48.630;9.000;2023-04-19T15:58:58;8.60;99.90
5786;DHT22;2919;48.630;9.000;2023-04-19T16:01:23;8.70;99.90
5786;DHT22;2919;48.630;9.000;2023-04-19T16:03:49;8.70;99.90
5786;DHT22;2919;48.630;9.000;2023-04-19T16:06:15;8.70;99.90
5786;DHT22;2919;48.630;9.000;2023-04-19T16:08:41;8.80;99.90
5786;DHT22;2919;48.630;9.000;2023-04-19T16:11:06;8.80;99.90
5786;DHT22;2919;48.630;9.000;2023-04-19T16:13:32;8.70;99.90
5786;DHT22;2919;48.630;9.000;2023-04-19T16:15:58;8.70;99.90
5786;DHT22;2919;48.630;9.000;2023-04-19T16:18:24;8.70;99.90
5786;DHT22;2919;48.630;9.000;2023-04-19T16:20:52;8.70;99.90
5786;DHT22;2919;48.630;9.000;2023-04-19T16:23:18;8.80;99.90
5786;DHT22;2919;48.630;9.000;2023-04-19T16:25:43;8.60;99.90
5786;DHT22;2919;48.630;9.000;2023-04-19T16:28:10;8.70;99.90
5786;DHT22;2919;48.630;9.000;2023-04-19T16:30:36;8.70;99.90
5786;DHT22;2919;48.630;9.000;2023-04-19T16:33:02;8.70;99.90
5786;DHT22;2919;48.630;9.000;2023-04-19T16:35:28;8.70;99.90